createdAt,value
2022-11-10T00:00:01.421Z,2.50
2022-11-10T00:02:48.660Z,3.53
2022-11-10T00:05:38.273Z,2.90
2022-11-10T00:08:24.952Z,2.47
2022-11-10T00:11:12.862Z,3.27
2022-11-10T00:14:19.146Z,4.60
2022-11-10T00:17:05.749Z,3.43
2022-11-10T00:19:52.514Z,2.53
2022-11-10T00:22:40.199Z,2.20
2022-11-10T00:25:27.570Z,4.53
2022-11-10T00:28:15.631Z,5.47
2022-11-10T00:31:06.924Z,3.60
2022-11-10T00:33:53.389Z,3.47
2022-11-10T00:36:40.011Z,3.03
2022-11-10T00:39:26.716Z,2.73
2022-11-10T00:42:13.502Z,3.57
2022-11-10T00:45:01.459Z,5.00
2022-11-10T00:47:47.735Z,2.50
2022-11-10T00:50:34.412Z,2.80
2022-11-10T00:53:21.317Z,4.47
2022-11-10T00:56:07.943Z,3.40
2022-11-10T00:58:54.514Z,5.73
2022-11-10T01:01:42.448Z,2.37
2022-11-10T01:04:28.757Z,3.17
2022-11-10T01:07:15.651Z,4.23
2022-11-10T01:10:02.331Z,2.93
2022-11-10T01:12:48.928Z,2.83
2022-11-10T01:15:35.592Z,2.10
2022-11-10T01:18:23.510Z,6.33
2022-11-10T01:21:10.955Z,2.47
2022-11-10T01:23:58.385Z,4.20
2022-11-10T01:26:45.146Z,2.57
2022-11-10T01:29:31.793Z,2.67
2022-11-10T01:32:18.597Z,2.67
2022-11-10T01:35:07.868Z,2.80
2022-11-10T01:37:54.779Z,2.50
2022-11-10T01:40:41.180Z,3.67
2022-11-10T01:43:29.594Z,3.30
2022-11-10T01:46:16.355Z,5.90
2022-11-10T01:49:04.718Z,3.07
2022-11-10T01:51:55.766Z,4.07
2022-11-10T01:54:47.634Z,5.43
2022-11-10T01:57:34.638Z,8.77
2022-11-10T02:00:21.938Z,2.40
2022-11-10T02:03:13.256Z,5.20
2022-11-10T02:06:00.178Z,4.87
2022-11-10T02:08:48.441Z,5.50
2022-11-10T02:11:36.853Z,4.80
2022-11-10T02:14:23.635Z,3.73
2022-11-10T02:17:10.715Z,8.23
2022-11-10T02:20:04.732Z,4.97
2022-11-10T02:22:52.881Z,4.33
2022-11-10T02:25:39.454Z,3.90
2022-11-10T02:28:27.573Z,5.93
2022-11-10T02:31:14.469Z,2.30
2022-11-10T02:34:00.966Z,2.83
2022-11-10T02:39:49.864Z,4.17
2022-11-10T02:42:36.186Z,5.00
2022-11-10T02:45:22.820Z,4.53
2022-11-10T02:48:09.797Z,4.80
2022-11-10T02:50:56.793Z,2.70
2022-11-10T02:53:43.863Z,3.10
2022-11-10T02:56:31.722Z,4.10
2022-11-10T02:59:18.101Z,3.40
2022-11-10T03:02:04.761Z,3.17
2022-11-10T03:04:51.316Z,3.27
2022-11-10T03:07:38.069Z,4.57
2022-11-10T03:10:25.147Z,3.47
2022-11-10T03:13:14.299Z,2.47
2022-11-10T03:16:00.896Z,3.13
2022-11-10T03:18:47.418Z,4.93
2022-11-10T03:21:34.087Z,4.93
2022-11-10T03:24:20.648Z,3.20
2022-11-10T03:27:07.670Z,3.07
2022-11-10T03:29:55.541Z,8.00
2022-11-10T03:32:42.395Z,4.30
2022-11-10T03:35:29.198Z,5.40
2022-11-10T03:38:16.040Z,6.73
2022-11-10T03:41:19.862Z,4.50
2022-11-10T03:44:07.842Z,5.70
2022-11-10T03:46:55.871Z,2.90
2022-11-10T03:49:42.555Z,3.97
2022-11-10T03:52:28.985Z,4.53
2022-11-10T03:55:18.597Z,7.00
2022-11-10T03:58:06.062Z,5.20
2022-11-10T04:00:54.745Z,7.93
2022-11-10T04:03:43.134Z,3.97
2022-11-10T04:06:49.741Z,4.80
2022-11-10T04:09:36.637Z,5.20
2022-11-10T04:12:40.513Z,4.23
2022-11-10T04:15:45.768Z,3.17
2022-11-10T04:18:32.234Z,2.83
2022-11-10T04:21:20.233Z,7.07
2022-11-10T04:24:07.223Z,5.83
2022-11-10T04:26:53.926Z,8.43
2022-11-10T04:29:41.023Z,6.87
2022-11-10T04:32:27.622Z,4.63
2022-11-10T04:35:14.175Z,4.30
2022-11-10T04:38:02.724Z,4.37
2022-11-10T04:40:49.695Z,3.10
2022-11-10T04:43:36.380Z,2.40
2022-11-10T04:46:25.117Z,5.80
2022-11-10T04:49:12.109Z,4.50
2022-11-10T04:51:59.059Z,4.97
2022-11-10T04:54:47.145Z,4.30
2022-11-10T04:57:33.726Z,5.33
2022-11-10T05:00:21.031Z,8.20
2022-11-10T05:03:10.739Z,6.80
2022-11-10T05:05:57.006Z,6.90
2022-11-10T05:08:44.854Z,8.90
2022-11-10T05:11:32.652Z,7.57
2022-11-10T05:14:19.383Z,3.80
2022-11-10T05:17:05.874Z,7.33
2022-11-10T05:19:52.899Z,5.50
2022-11-10T05:22:39.780Z,8.87
2022-11-10T05:25:26.217Z,5.23
2022-11-10T05:28:14.111Z,4.67
2022-11-10T05:31:01.154Z,5.27
2022-11-10T05:33:47.728Z,5.87
2022-11-10T05:36:34.301Z,4.10
2022-11-10T05:39:20.834Z,2.47
2022-11-10T05:42:07.964Z,5.23
2022-11-10T05:44:55.597Z,4.53
2022-11-10T05:47:43.309Z,6.90
2022-11-10T05:50:30.208Z,8.50
2022-11-10T05:53:16.711Z,4.20
2022-11-10T05:56:03.185Z,5.93
2022-11-10T05:58:49.438Z,17.53
2022-11-10T06:01:37.559Z,7.20
2022-11-10T06:04:24.236Z,7.10
2022-11-10T06:07:11.923Z,7.50
2022-11-10T06:09:58.685Z,5.53
2022-11-10T06:12:46.643Z,9.63
2022-11-10T06:15:34.266Z,14.00
2022-11-10T06:18:22.293Z,13.30
2022-11-10T06:21:08.652Z,20.07
2022-11-10T06:23:55.270Z,19.03
2022-11-10T06:26:42.087Z,18.00
2022-11-10T06:29:28.549Z,15.30
2022-11-10T06:32:15.251Z,20.73
2022-11-10T06:35:03.226Z,15.40
2022-11-10T06:38:00.683Z,16.47
2022-11-10T06:40:47.598Z,14.07
2022-11-10T06:43:33.996Z,12.07
2022-11-10T06:46:20.200Z,13.63
2022-11-10T06:49:07.352Z,19.93
2022-11-10T06:51:55.026Z,13.90
2022-11-10T06:54:41.679Z,18.93
2022-11-10T06:57:28.661Z,11.97
2022-11-10T07:00:17.962Z,11.57
2022-11-10T07:03:06.567Z,15.23
2022-11-10T07:05:53.042Z,19.13
2022-11-10T07:08:40.918Z,21.30
2022-11-10T07:11:27.257Z,17.73
2022-11-10T07:14:13.921Z,17.73
2022-11-10T07:17:00.906Z,18.80
2022-11-10T07:19:47.479Z,26.63
2022-11-10T07:22:34.365Z,21.43
2022-11-10T07:25:22.427Z,15.57
2022-11-10T07:28:10.615Z,11.60
2022-11-10T07:30:57.000Z,12.33
2022-11-10T07:33:44.093Z,17.70
2022-11-10T07:36:30.749Z,14.87
2022-11-10T07:39:17.390Z,14.60
2022-11-10T07:42:05.511Z,13.97
2022-11-10T07:44:52.316Z,13.20
2022-11-10T07:47:38.690Z,16.10
2022-11-10T07:50:25.367Z,13.57
2022-11-10T07:53:13.491Z,24.33
2022-11-10T07:56:00.362Z,11.07
2022-11-10T07:58:49.520Z,9.07
2022-11-10T08:01:36.010Z,9.03
2022-11-10T08:04:22.778Z,9.83
2022-11-10T08:07:09.603Z,9.90
2022-11-10T08:09:56.155Z,14.57
2022-11-10T08:12:42.603Z,12.03
2022-11-10T08:15:31.875Z,10.83
2022-11-10T08:18:20.692Z,9.00
2022-11-10T08:21:07.684Z,10.07
2022-11-10T08:23:54.840Z,5.87
2022-11-10T08:26:42.162Z,6.00
2022-11-10T08:29:28.950Z,9.03
2022-11-10T08:32:17.119Z,9.80
2022-11-10T08:35:03.867Z,6.47
2022-11-10T08:37:50.238Z,8.67
2022-11-10T08:40:37.035Z,6.63
2022-11-10T08:43:23.890Z,8.57
2022-11-10T08:46:10.886Z,10.03
2022-11-10T08:48:58.852Z,35.73
2022-11-10T08:51:45.689Z,7.40
2022-11-10T08:54:32.030Z,7.37
2022-11-10T08:57:18.669Z,5.20
2022-11-10T09:00:06.598Z,4.67
2022-11-10T09:02:53.195Z,7.90
2022-11-10T09:05:41.911Z,5.40
2022-11-10T09:08:28.527Z,8.33
2022-11-10T09:11:15.171Z,4.33
2022-11-10T09:14:01.795Z,9.10
2022-11-10T09:16:48.240Z,8.10
2022-11-10T09:19:34.939Z,7.77
2022-11-10T09:22:22.787Z,7.00
2022-11-10T09:25:10.227Z,9.67
2022-11-10T09:27:56.875Z,5.40
2022-11-10T09:30:46.308Z,6.37
2022-11-10T09:33:32.878Z,7.13
2022-11-10T09:36:19.512Z,5.10
2022-11-10T09:39:08.372Z,6.60
2022-11-10T09:41:54.896Z,13.17
2022-11-10T09:44:51.356Z,6.33
2022-11-10T09:47:56.751Z,5.63
2022-11-10T09:50:50.450Z,5.47
2022-11-10T09:53:41.537Z,9.90
2022-11-10T09:56:33.794Z,4.73
2022-11-10T09:59:26.656Z,3.07
2022-11-10T10:02:23.742Z,5.83
2022-11-10T10:05:46.444Z,4.83
2022-11-10T10:08:45.566Z,4.90
2022-11-10T10:11:44.799Z,4.10
2022-11-10T10:14:52.663Z,7.10
2022-11-10T10:17:45.907Z,2.47
2022-11-10T10:20:41.904Z,3.30
2022-11-10T10:24:07.085Z,6.03
2022-11-10T10:26:49.855Z,3.47
2022-11-10T10:29:40.911Z,4.53
2022-11-10T10:32:28.202Z,3.37
2022-11-10T10:35:16.359Z,4.37
2022-11-10T10:38:05.308Z,7.33
2022-11-10T10:40:53.981Z,3.07
2022-11-10T10:43:43.456Z,4.83
2022-11-10T10:46:35.775Z,2.13
2022-11-10T10:49:29.009Z,10.03
2022-11-10T10:52:17.437Z,3.10
2022-11-10T10:55:09.687Z,5.00
2022-11-10T10:58:01.179Z,3.07
2022-11-10T11:00:51.725Z,5.13
2022-11-10T11:03:43.888Z,11.93
2022-11-10T11:06:32.157Z,3.30
2022-11-10T11:09:23.854Z,4.33
2022-11-10T11:12:14.178Z,5.40
2022-11-10T11:15:15.126Z,5.93
2022-11-10T11:18:11.885Z,10.27
2022-11-10T11:21:03.608Z,4.60
2022-11-10T11:24:07.313Z,4.57
2022-11-10T11:27:00.538Z,3.20
2022-11-10T11:30:02.751Z,3.30
2022-11-10T11:33:21.390Z,5.00
2022-11-10T11:36:21.815Z,4.50
2022-11-10T11:39:20.490Z,7.57
2022-11-10T11:42:17.606Z,4.37
2022-11-10T11:45:21.562Z,5.00
2022-11-10T11:48:34.592Z,5.13
2022-11-10T11:51:29.545Z,7.43
2022-11-10T11:54:38.198Z,16.30
2022-11-10T11:57:38.804Z,5.13
2022-11-10T12:00:26.918Z,6.80
2022-11-10T12:03:35.443Z,3.00
2022-11-10T12:06:34.294Z,6.07
2022-11-10T12:09:31.325Z,3.83
2022-11-10T12:12:38.419Z,1.90
2022-11-10T12:15:34.549Z,5.83
2022-11-10T12:18:31.453Z,4.13
2022-11-10T12:21:38.102Z,5.73
2022-11-10T12:24:38.398Z,3.80
2022-11-10T12:27:28.695Z,9.33
2022-11-10T12:30:17.449Z,2.70
2022-11-10T12:33:08.568Z,1.70
2022-11-10T12:35:56.273Z,4.93
2022-11-10T12:38:59.546Z,6.13
2022-11-10T12:41:49.724Z,6.60
2022-11-10T12:44:40.514Z,2.90
2022-11-10T12:47:31.503Z,9.97
2022-11-10T12:50:29.604Z,1.83
2022-11-10T12:53:22.957Z,1.03
2022-11-10T12:56:18.856Z,3.23
2022-11-10T12:59:26.308Z,2.63
2022-11-10T13:02:24.748Z,4.37
2022-11-10T13:05:29.177Z,6.43
2022-11-10T13:08:27.929Z,5.83
2022-11-10T13:11:28.829Z,3.40
2022-11-10T13:14:24.623Z,1.73
2022-11-10T13:17:49.691Z,1.90
2022-11-10T13:20:52.129Z,4.17
2022-11-10T13:24:18.245Z,4.70
2022-11-10T13:27:11.294Z,4.13
2022-11-10T13:29:59.683Z,4.87
2022-11-10T13:32:46.034Z,3.70
2022-11-10T13:35:55.467Z,11.03
2022-11-10T13:38:44.323Z,0.93
2022-11-10T13:41:34.716Z,1.30
2022-11-10T13:44:26.275Z,3.37
2022-11-10T13:47:37.142Z,2.00
2022-11-10T13:50:35.172Z,1.73
2022-11-10T13:53:33.868Z,3.17
2022-11-10T13:56:36.650Z,3.97
2022-11-10T13:59:27.299Z,1.70
2022-11-10T14:02:56.214Z,2.67
2022-11-10T14:06:09.103Z,2.87
2022-11-10T14:09:00.691Z,5.00
2022-11-10T14:11:50.687Z,5.47
2022-11-10T14:14:50.343Z,3.10
2022-11-10T14:17:42.621Z,3.93
2022-11-10T14:20:34.732Z,6.07
2022-11-10T14:23:26.994Z,7.27
2022-11-10T14:26:23.163Z,4.93
2022-11-10T14:29:29.755Z,3.50
2022-11-10T14:32:22.255Z,5.33
2022-11-10T14:35:20.567Z,3.37
2022-11-10T14:38:20.407Z,2.40
2022-11-10T14:41:08.261Z,2.53
2022-11-10T14:44:03.337Z,2.27
2022-11-10T14:46:49.734Z,3.50
2022-11-10T14:49:37.738Z,3.40
2022-11-10T14:52:24.243Z,3.10
2022-11-10T14:55:17.233Z,1.80
2022-11-10T14:58:11.730Z,1.83
2022-11-10T15:00:58.065Z,4.80
2022-11-10T15:03:45.015Z,2.10
2022-11-10T15:06:33.653Z,2.83
2022-11-10T15:09:28.327Z,3.50
2022-11-10T15:12:29.769Z,3.87
2022-11-10T15:15:20.963Z,5.60
2022-11-10T15:18:08.286Z,3.37
2022-11-10T15:21:02.102Z,0.80
2022-11-10T15:23:57.910Z,4.27
2022-11-10T15:26:44.590Z,4.90
2022-11-10T15:29:31.941Z,6.33
2022-11-10T15:32:21.141Z,11.70
2022-11-10T15:35:09.788Z,12.93
2022-11-10T15:38:01.365Z,12.17
2022-11-10T15:40:51.346Z,8.33
2022-11-10T15:43:37.927Z,5.33
2022-11-10T15:46:27.293Z,5.90
2022-11-10T15:49:20.819Z,5.93
2022-11-10T15:52:14.791Z,4.37
2022-11-10T15:55:01.568Z,6.27
2022-11-10T15:57:49.686Z,4.20
2022-11-10T16:00:35.910Z,6.70
2022-11-10T16:03:24.434Z,6.93
2022-11-10T16:06:13.626Z,5.87
2022-11-10T16:09:00.588Z,6.20
2022-11-10T16:11:47.364Z,11.17
2022-11-10T16:14:35.367Z,11.77
2022-11-10T16:17:22.112Z,7.63
2022-11-10T16:20:14.922Z,10.67
2022-11-10T16:23:01.335Z,8.07
2022-11-10T16:25:50.403Z,11.57
2022-11-10T16:28:36.655Z,11.10
2022-11-10T16:31:24.547Z,14.87
2022-11-10T16:34:13.743Z,15.23
2022-11-10T16:39:43.559Z,40.17
2022-11-10T16:42:29.741Z,27.80
2022-11-10T16:45:18.285Z,18.63
2022-11-10T16:48:08.136Z,14.40
2022-11-10T16:50:56.683Z,16.77
2022-11-10T16:53:43.305Z,16.73
2022-11-10T16:56:31.052Z,15.47
2022-11-10T16:59:18.008Z,13.90
2022-11-10T17:02:04.810Z,15.70
2022-11-10T17:04:51.353Z,16.00
2022-11-10T17:07:39.339Z,20.03
2022-11-10T17:10:26.092Z,18.90
2022-11-10T17:13:14.433Z,13.80
2022-11-10T17:16:06.225Z,18.93
2022-11-10T17:18:52.977Z,16.17
2022-11-10T17:21:40.053Z,15.87
2022-11-10T17:24:26.828Z,12.67
2022-11-10T17:27:13.433Z,11.43
2022-11-10T17:30:01.445Z,24.00
2022-11-10T17:33:05.510Z,13.03
2022-11-10T17:35:54.489Z,10.80
2022-11-10T17:38:42.007Z,13.80
2022-11-10T17:41:29.049Z,14.13
2022-11-10T17:44:17.947Z,12.23
2022-11-10T17:47:05.769Z,10.90
2022-11-10T17:49:52.690Z,13.13
2022-11-10T17:52:39.313Z,20.20
2022-11-10T17:55:33.801Z,17.10
2022-11-10T17:58:20.599Z,15.37
2022-11-10T18:01:12.175Z,17.57
2022-11-10T18:04:00.446Z,31.17
2022-11-10T18:06:47.314Z,26.33
2022-11-10T18:09:33.964Z,22.00
2022-11-10T18:12:25.282Z,20.10
2022-11-10T18:15:15.309Z,23.13
2022-11-10T18:18:01.650Z,19.00
2022-11-10T18:20:50.161Z,18.47
2022-11-10T18:23:36.922Z,19.13
2022-11-10T18:26:23.275Z,19.03
2022-11-10T18:29:09.919Z,18.90
2022-11-10T18:31:56.463Z,20.43
2022-11-10T18:34:45.639Z,21.00
2022-11-10T18:37:39.068Z,22.60
2022-11-10T18:40:26.692Z,18.13
2022-11-10T18:43:13.188Z,16.53
2022-11-10T18:45:59.740Z,22.93
2022-11-10T18:48:47.011Z,20.13
2022-11-10T18:51:33.532Z,25.60
2022-11-10T18:54:21.524Z,22.13
2022-11-10T18:57:08.374Z,28.73
2022-11-10T18:59:54.866Z,27.67
2022-11-10T19:02:43.115Z,24.13
2022-11-10T19:05:30.111Z,25.17
2022-11-10T19:08:17.242Z,29.97
2022-11-10T19:11:08.798Z,22.50
2022-11-10T19:13:55.595Z,24.73
2022-11-10T19:16:42.027Z,25.73
2022-11-10T19:19:28.669Z,31.70
2022-11-10T19:22:15.084Z,29.30
2022-11-10T19:25:08.299Z,25.27
2022-11-10T19:27:57.619Z,19.00
2022-11-10T19:30:43.822Z,15.20
2022-11-10T19:33:31.952Z,12.37
2022-11-10T19:36:21.024Z,17.37
2022-11-10T19:39:07.580Z,15.60
2022-11-10T19:41:54.048Z,13.87
2022-11-10T19:44:42.077Z,17.93
2022-11-10T19:47:28.566Z,17.40
2022-11-10T19:50:15.328Z,19.80
2022-11-10T19:53:02.054Z,18.63
2022-11-10T19:55:48.973Z,26.73
2022-11-10T19:58:36.992Z,30.87
2022-11-10T20:01:25.006Z,46.43
2022-11-10T20:04:12.628Z,49.50
2022-11-10T20:07:12.980Z,51.43
2022-11-10T20:10:00.278Z,41.13
2022-11-10T20:12:47.062Z,43.07
2022-11-10T20:15:33.677Z,36.37
2022-11-10T20:18:21.818Z,33.60
2022-11-10T20:21:10.331Z,32.67
2022-11-10T20:23:57.875Z,21.20
2022-11-10T20:26:44.219Z,25.53
2022-11-10T20:29:31.066Z,22.33
2022-11-10T20:32:17.655Z,19.20
2022-11-10T20:35:06.004Z,18.87
2022-11-10T20:37:52.534Z,19.53
2022-11-10T20:40:44.545Z,19.80
2022-11-10T20:43:34.490Z,15.10
2022-11-10T20:46:48.441Z,19.37
2022-11-10T20:49:29.444Z,15.27
2022-11-10T20:52:18.039Z,15.77
2022-11-10T20:55:05.481Z,17.33
2022-11-10T20:57:52.188Z,17.67
2022-11-10T21:00:38.818Z,17.30
2022-11-10T21:03:25.803Z,28.57
2022-11-10T21:06:12.764Z,27.07
2022-11-10T21:09:00.682Z,31.07
2022-11-10T21:12:05.124Z,28.47
2022-11-10T21:14:51.566Z,31.53
2022-11-10T21:17:43.851Z,29.87
2022-11-10T21:20:33.799Z,31.87
2022-11-10T21:23:20.496Z,29.93
2022-11-10T21:26:09.210Z,24.37
2022-11-10T21:28:56.105Z,28.57
2022-11-10T21:31:42.927Z,26.60
2022-11-10T21:34:29.475Z,23.13
2022-11-10T21:37:16.273Z,26.57
2022-11-10T21:40:02.754Z,28.83
2022-11-10T21:42:55.230Z,25.87
2022-11-10T21:45:42.026Z,30.97
2022-11-10T21:48:28.590Z,25.93
2022-11-10T21:51:15.537Z,22.57
2022-11-10T21:54:01.911Z,22.50
2022-11-10T21:56:48.972Z,23.00
2022-11-10T21:59:36.776Z,18.63
2022-11-10T22:02:23.552Z,24.43
2022-11-10T22:05:10.302Z,19.47
2022-11-10T22:07:56.842Z,21.97
2022-11-10T22:11:01.066Z,20.90
2022-11-10T22:14:05.487Z,18.13
2022-11-10T22:17:11.566Z,13.70
2022-11-10T22:19:58.254Z,19.00
2022-11-10T22:22:45.311Z,25.10
2022-11-10T22:25:32.172Z,28.13
2022-11-10T22:28:21.320Z,30.43
2022-11-10T22:31:09.578Z,16.47
2022-11-10T22:33:57.525Z,18.27
2022-11-10T22:36:44.035Z,20.40
2022-11-10T22:39:44.392Z,14.83
2022-11-10T22:42:48.614Z,22.27
2022-11-10T22:45:35.467Z,17.60
2022-11-10T22:48:28.382Z,22.10
2022-11-10T22:51:16.326Z,19.10
2022-11-10T22:54:04.049Z,18.53
2022-11-10T22:56:51.556Z,18.03
2022-11-10T22:59:38.436Z,26.23
2022-11-10T23:02:25.104Z,19.90
2022-11-10T23:05:11.665Z,16.67
2022-11-10T23:07:59.266Z,22.37
2022-11-10T23:10:45.846Z,19.80
2022-11-10T23:13:34.062Z,15.67
2022-11-10T23:16:22.583Z,18.97
2022-11-10T23:19:11.569Z,17.30
2022-11-10T23:21:57.761Z,20.50
2022-11-10T23:24:45.788Z,17.83
2022-11-10T23:27:34.165Z,19.47
2022-11-10T23:30:20.438Z,15.73
2022-11-10T23:33:06.911Z,20.27
2022-11-10T23:35:53.742Z,13.70
2022-11-10T23:38:41.172Z,10.37
2022-11-10T23:41:29.184Z,12.13
2022-11-10T23:44:15.827Z,14.20
2022-11-10T23:47:02.334Z,17.20
2022-11-10T23:49:48.959Z,11.43
2022-11-10T23:52:35.621Z,12.47
2022-11-10T23:55:22.727Z,11.43
2022-11-10T23:58:11.038Z,10.63
